sensor_id;sensor_type;location;lat;lon;timestamp;P1;durP1;ratioP1;P2;durP2;ratioP2
32838;SDS011;19182;41.820;12.808;2023-02-23T00:01:19;31.65;;;19.52;;
32838;SDS011;19182;41.820;12.808;2023-02-23T00:04:03;29.55;;;17.13;;
32838;SDS011;19182;41.820;12.808;2023-02-23T00:06:30;24.48;;;15.98;;
32838;SDS011;19182;41.820;12.808;2023-02-23T00:08:57;23.98;;;15.60;;
32838;SDS011;19182;41.820;12.808;2023-02-23T00:11:25;27.05;;;15.20;;
32838;SDS011;19182;41.820;12.808;2023-02-23T00:13:53;30.02;;;17.40;;
32838;SDS011;19182;41.820;12.808;2023-02-23T00:16:23;28.02;;;16.48;;
32838;SDS011;19182;41.820;12.808;2023-02-23T00:18:54;24.10;;;16.52;;
32838;SDS011;19182;41.820;12.808;2023-02-23T00:21:26;30.85;;;17.10;;
32838;SDS011;19182;41.820;12.808;2023-02-23T00:24:00;31.40;;;16.35;;
32838;SDS011;19182;41.820;12.808;2023-02-23T00:26:28;32.58;;;19.10;;
32838;SDS011;19182;41.820;12.808;2023-02-23T00:28:59;31.25;;;18.35;;
32838;SDS011;19182;41.820;12.808;2023-02-23T00:31:27;34.70;;;20.20;;
32838;SDS011;19182;41.820;12.808;2023-02-23T00:33:55;28.33;;;18.95;;
32838;SDS011;19182;41.820;12.808;2023-02-23T00:36:26;28.88;;;18.63;;
32838;SDS011;19182;41.820;12.808;2023-02-23T00:38:54;28.52;;;17.25;;
32838;SDS011;19182;41.820;12.808;2023-02-23T00:41:24;27.83;;;17.40;;
32838;SDS011;19182;41.820;12.808;2023-02-23T00:43:56;28.60;;;17.45;;
32838;SDS011;19182;41.820;12.808;2023-02-23T00:46:24;29.33;;;18.15;;
32838;SDS011;19182;41.820;12.808;2023-02-23T00:48:52;29.88;;;16.77;;
32838;SDS011;19182;41.820;12.808;2023-02-23T00:51:19;30.85;;;17.10;;
32838;SDS011;19182;41.820;12.808;2023-02-23T00:53:46;27.13;;;16.08;;
32838;SDS011;19182;41.820;12.808;2023-02-23T00:56:14;19.65;;;13.23;;
32838;SDS011;19182;41.820;12.808;2023-02-23T00:58:45;18.98;;;12.68;;
32838;SDS011;19182;41.820;12.808;2023-02-23T01:01:12;22.60;;;12.50;;
32838;SDS011;19182;41.820;12.808;2023-02-23T01:03:39;18.25;;;12.98;;
32838;SDS011;19182;41.820;12.808;2023-02-23T01:06:08;22.63;;;14.27;;
32838;SDS011;19182;41.820;12.808;2023-02-23T01:08:37;22.83;;;14.27;;
32838;SDS011;19182;41.820;12.808;2023-02-23T01:11:05;24.45;;;14.07;;
32838;SDS011;19182;41.820;12.808;2023-02-23T01:13:33;23.33;;;15.73;;
32838;SDS011;19182;41.820;12.808;2023-02-23T01:16:02;27.27;;;18.45;;
32838;SDS011;19182;41.820;12.808;2023-02-23T01:18:31;25.75;;;15.70;;
32838;SDS011;19182;41.820;12.808;2023-02-23T01:20:58;23.45;;;15.90;;
32838;SDS011;19182;41.820;12.808;2023-02-23T01:23:26;21.08;;;14.95;;
32838;SDS011;19182;41.820;12.808;2023-02-23T01:25:52;26.23;;;15.65;;
32838;SDS011;19182;41.820;12.808;2023-02-23T01:28:18;27.15;;;14.75;;
32838;SDS011;19182;41.820;12.808;2023-02-23T01:30:44;20.42;;;13.95;;
32838;SDS011;19182;41.820;12.808;2023-02-23T01:33:10;23.48;;;13.77;;
32838;SDS011;19182;41.820;12.808;2023-02-23T01:35:37;18.98;;;13.65;;
32838;SDS011;19182;41.820;12.808;2023-02-23T01:38:04;22.65;;;15.10;;
32838;SDS011;19182;41.820;12.808;2023-02-23T01:40:30;23.77;;;14.90;;
32838;SDS011;19182;41.820;12.808;2023-02-23T01:42:58;19.48;;;11.80;;
32838;SDS011;19182;41.820;12.808;2023-02-23T01:45:36;19.17;;;13.27;;
32838;SDS011;19182;41.820;12.808;2023-02-23T01:48:20;22.45;;;12.02;;
32838;SDS011;19182;41.820;12.808;2023-02-23T01:50:57;19.00;;;12.45;;
32838;SDS011;19182;41.820;12.808;2023-02-23T01:53:28;18.65;;;12.57;;
32838;SDS011;19182;41.820;12.808;2023-02-23T01:56:00;19.05;;;13.18;;
32838;SDS011;19182;41.820;12.808;2023-02-23T01:58:35;22.48;;;13.18;;
32838;SDS011;19182;41.820;12.808;2023-02-23T02:01:07;20.70;;;13.00;;
32838;SDS011;19182;41.820;12.808;2023-02-23T02:03:38;24.38;;;15.20;;
32838;SDS011;19182;41.820;12.808;2023-02-23T02:06:13;20.20;;;12.88;;
32838;SDS011;19182;41.820;12.808;2023-02-23T02:11:17;18.70;;;12.30;;
32838;SDS011;19182;41.820;12.808;2023-02-23T02:24:57;17.95;;;11.25;;
32838;SDS011;19182;41.820;12.808;2023-02-23T02:56:33;19.50;;;12.18;;
32838;SDS011;19182;41.820;12.808;2023-02-23T02:59:15;19.05;;;12.75;;
32838;SDS011;19182;41.820;12.808;2023-02-23T03:02:01;19.15;;;12.50;;
32838;SDS011;19182;41.820;12.808;2023-02-23T03:04:46;21.70;;;12.15;;
32838;SDS011;19182;41.820;12.808;2023-02-23T03:07:42;24.92;;;14.95;;
32838;SDS011;19182;41.820;12.808;2023-02-23T03:19:54;26.45;;;13.05;;
32838;SDS011;19182;41.820;12.808;2023-02-23T03:22:55;22.35;;;13.27;;
32838;SDS011;19182;41.820;12.808;2023-02-23T03:26:03;21.15;;;12.75;;
32838;SDS011;19182;41.820;12.808;2023-02-23T03:29:11;21.40;;;12.93;;
32838;SDS011;19182;41.820;12.808;2023-02-23T03:38:34;22.27;;;13.57;;
32838;SDS011;19182;41.820;12.808;2023-02-23T03:41:29;26.33;;;14.23;;
32838;SDS011;19182;41.820;12.808;2023-02-23T03:44:23;20.00;;;13.52;;
32838;SDS011;19182;41.820;12.808;2023-02-23T03:47:16;32.80;;;16.60;;
32838;SDS011;19182;41.820;12.808;2023-02-23T03:50:06;30.73;;;17.30;;
32838;SDS011;19182;41.820;12.808;2023-02-23T03:52:58;32.13;;;17.08;;
32838;SDS011;19182;41.820;12.808;2023-02-23T03:55:44;31.00;;;17.90;;
32838;SDS011;19182;41.820;12.808;2023-02-23T03:58:39;33.03;;;18.83;;
32838;SDS011;19182;41.820;12.808;2023-02-23T04:01:32;32.10;;;18.30;;
32838;SDS011;19182;41.820;12.808;2023-02-23T04:04:19;27.75;;;17.73;;
32838;SDS011;19182;41.820;12.808;2023-02-23T04:07:05;38.85;;;21.42;;
32838;SDS011;19182;41.820;12.808;2023-02-23T04:09:50;35.10;;;20.40;;
32838;SDS011;19182;41.820;12.808;2023-02-23T04:18:22;38.67;;;20.60;;
32838;SDS011;19182;41.820;12.808;2023-02-23T04:23:16;33.15;;;19.73;;
32838;SDS011;19182;41.820;12.808;2023-02-23T04:25:42;37.28;;;20.17;;
32838;SDS011;19182;41.820;12.808;2023-02-23T04:28:08;35.53;;;19.52;;
32838;SDS011;19182;41.820;12.808;2023-02-23T04:30:34;32.88;;;19.33;;
32838;SDS011;19182;41.820;12.808;2023-02-23T04:33:00;32.75;;;19.77;;
32838;SDS011;19182;41.820;12.808;2023-02-23T04:35:26;32.53;;;19.13;;
32838;SDS011;19182;41.820;12.808;2023-02-23T04:37:53;34.13;;;20.73;;
32838;SDS011;19182;41.820;12.808;2023-02-23T04:40:21;36.67;;;19.33;;
32838;SDS011;19182;41.820;12.808;2023-02-23T04:42:48;32.53;;;18.02;;
32838;SDS011;19182;41.820;12.808;2023-02-23T04:45:14;31.48;;;18.92;;
32838;SDS011;19182;41.820;12.808;2023-02-23T04:47:41;28.88;;;17.90;;
32838;SDS011;19182;41.820;12.808;2023-02-23T04:50:07;33.70;;;18.67;;
32838;SDS011;19182;41.820;12.808;2023-02-23T04:52:34;36.63;;;21.77;;
32838;SDS011;19182;41.820;12.808;2023-02-23T04:55:04;31.83;;;19.70;;
32838;SDS011;19182;41.820;12.808;2023-02-23T04:57:31;32.45;;;19.20;;
32838;SDS011;19182;41.820;12.808;2023-02-23T04:59:57;33.08;;;19.88;;
32838;SDS011;19182;41.820;12.808;2023-02-23T05:02:24;37.10;;;22.30;;
32838;SDS011;19182;41.820;12.808;2023-02-23T05:04:53;36.08;;;23.17;;
32838;SDS011;19182;41.820;12.808;2023-02-23T05:07:18;39.13;;;21.23;;
32838;SDS011;19182;41.820;12.808;2023-02-23T05:09:44;37.92;;;23.70;;
32838;SDS011;19182;41.820;12.808;2023-02-23T05:12:10;36.38;;;21.25;;
32838;SDS011;19182;41.820;12.808;2023-02-23T05:14:36;34.85;;;22.27;;
32838;SDS011;19182;41.820;12.808;2023-02-23T05:17:02;42.85;;;23.90;;
32838;SDS011;19182;41.820;12.808;2023-02-23T05:19:28;39.53;;;23.40;;
32838;SDS011;19182;41.820;12.808;2023-02-23T05:21:55;37.20;;;23.25;;
32838;SDS011;19182;41.820;12.808;2023-02-23T05:24:21;35.00;;;22.30;;
32838;SDS011;19182;41.820;12.808;2023-02-23T05:26:47;40.97;;;22.70;;
32838;SDS011;19182;41.820;12.808;2023-02-23T05:29:13;45.10;;;23.85;;
32838;SDS011;19182;41.820;12.808;2023-02-23T05:31:40;32.03;;;20.70;;
32838;SDS011;19182;41.820;12.808;2023-02-23T05:34:06;36.22;;;21.58;;
32838;SDS011;19182;41.820;12.808;2023-02-23T05:36:32;38.05;;;21.95;;
32838;SDS011;19182;41.820;12.808;2023-02-23T05:38:58;43.38;;;22.95;;
32838;SDS011;19182;41.820;12.808;2023-02-23T05:41:24;34.85;;;21.95;;
32838;SDS011;19182;41.820;12.808;2023-02-23T05:43:53;41.17;;;23.30;;
32838;SDS011;19182;41.820;12.808;2023-02-23T05:46:19;40.42;;;23.60;;
32838;SDS011;19182;41.820;12.808;2023-02-23T05:48:49;39.28;;;22.20;;
32838;SDS011;19182;41.820;12.808;2023-02-23T05:51:16;32.13;;;20.02;;
32838;SDS011;19182;41.820;12.808;2023-02-23T05:53:43;35.05;;;21.08;;
32838;SDS011;19182;41.820;12.808;2023-02-23T05:56:11;39.05;;;22.88;;
32838;SDS011;19182;41.820;12.808;2023-02-23T05:58:45;37.70;;;20.95;;
32838;SDS011;19182;41.820;12.808;2023-02-23T06:01:24;35.38;;;20.77;;
32838;SDS011;19182;41.820;12.808;2023-02-23T06:03:51;35.63;;;19.17;;
32838;SDS011;19182;41.820;12.808;2023-02-23T06:06:17;35.05;;;21.77;;
32838;SDS011;19182;41.820;12.808;2023-02-23T06:08:43;38.83;;;21.38;;
32838;SDS011;19182;41.820;12.808;2023-02-23T06:11:09;36.60;;;22.05;;
32838;SDS011;19182;41.820;12.808;2023-02-23T06:13:36;39.72;;;22.63;;
32838;SDS011;19182;41.820;12.808;2023-02-23T06:16:02;41.40;;;24.25;;
32838;SDS011;19182;41.820;12.808;2023-02-23T06:18:28;44.70;;;23.33;;
32838;SDS011;19182;41.820;12.808;2023-02-23T06:20:57;42.33;;;21.23;;
32838;SDS011;19182;41.820;12.808;2023-02-23T06:23:25;41.97;;;20.77;;
32838;SDS011;19182;41.820;12.808;2023-02-23T06:25:51;36.10;;;21.33;;
32838;SDS011;19182;41.820;12.808;2023-02-23T06:28:18;40.88;;;23.17;;
32838;SDS011;19182;41.820;12.808;2023-02-23T06:30:46;44.20;;;24.75;;
32838;SDS011;19182;41.820;12.808;2023-02-23T06:33:12;51.72;;;29.23;;
32838;SDS011;19182;41.820;12.808;2023-02-23T06:35:38;47.63;;;29.00;;
32838;SDS011;19182;41.820;12.808;2023-02-23T06:38:05;48.83;;;26.48;;
32838;SDS011;19182;41.820;12.808;2023-02-23T06:40:31;54.15;;;28.38;;
32838;SDS011;19182;41.820;12.808;2023-02-23T06:42:57;48.97;;;26.88;;
32838;SDS011;19182;41.820;12.808;2023-02-23T06:45:27;52.17;;;29.60;;
32838;SDS011;19182;41.820;12.808;2023-02-23T06:47:52;60.03;;;31.05;;
32838;SDS011;19182;41.820;12.808;2023-02-23T06:53:06;64.95;;;34.05;;
32838;SDS011;19182;41.820;12.808;2023-02-23T06:55:32;70.15;;;35.15;;
32838;SDS011;19182;41.820;12.808;2023-02-23T06:57:59;69.80;;;41.97;;
32838;SDS011;19182;41.820;12.808;2023-02-23T07:03:50;65.95;;;36.38;;
32838;SDS011;19182;41.820;12.808;2023-02-23T07:06:15;61.03;;;38.13;;
32838;SDS011;19182;41.820;12.808;2023-02-23T07:08:41;61.03;;;37.42;;
32838;SDS011;19182;41.820;12.808;2023-02-23T07:11:12;65.63;;;36.35;;
32838;SDS011;19182;41.820;12.808;2023-02-23T07:13:39;62.45;;;36.78;;
32838;SDS011;19182;41.820;12.808;2023-02-23T07:16:07;56.20;;;33.53;;
32838;SDS011;19182;41.820;12.808;2023-02-23T07:18:33;54.38;;;31.42;;
32838;SDS011;19182;41.820;12.808;2023-02-23T07:20:59;54.42;;;33.88;;
32838;SDS011;19182;41.820;12.808;2023-02-23T07:23:25;50.20;;;29.23;;
32838;SDS011;19182;41.820;12.808;2023-02-23T07:25:51;55.80;;;32.47;;
32838;SDS011;19182;41.820;12.808;2023-02-23T07:28:22;55.60;;;32.05;;
32838;SDS011;19182;41.820;12.808;2023-02-23T07:30:48;55.08;;;30.70;;
32838;SDS011;19182;41.820;12.808;2023-02-23T07:33:14;50.83;;;31.40;;
32838;SDS011;19182;41.820;12.808;2023-02-23T07:35:40;49.35;;;30.90;;
32838;SDS011;19182;41.820;12.808;2023-02-23T07:38:09;50.35;;;30.90;;
32838;SDS011;19182;41.820;12.808;2023-02-23T07:40:35;50.70;;;30.80;;
32838;SDS011;19182;41.820;12.808;2023-02-23T07:43:01;54.55;;;32.85;;
32838;SDS011;19182;41.820;12.808;2023-02-23T07:45:27;56.72;;;35.45;;
32838;SDS011;19182;41.820;12.808;2023-02-23T07:47:52;55.85;;;34.60;;
32838;SDS011;19182;41.820;12.808;2023-02-23T07:50:18;52.17;;;33.20;;
32838;SDS011;19182;41.820;12.808;2023-02-23T07:52:44;52.70;;;33.30;;
32838;SDS011;19182;41.820;12.808;2023-02-23T07:55:09;51.95;;;33.85;;
32838;SDS011;19182;41.820;12.808;2023-02-23T07:57:36;55.88;;;34.50;;
32838;SDS011;19182;41.820;12.808;2023-02-23T08:00:05;47.70;;;31.33;;
32838;SDS011;19182;41.820;12.808;2023-02-23T08:02:32;50.97;;;30.95;;
32838;SDS011;19182;41.820;12.808;2023-02-23T08:04:58;47.53;;;30.77;;
32838;SDS011;19182;41.820;12.808;2023-02-23T08:07:24;44.83;;;29.70;;
32838;SDS011;19182;41.820;12.808;2023-02-23T08:09:52;47.40;;;31.67;;
32838;SDS011;19182;41.820;12.808;2023-02-23T08:12:18;46.13;;;29.90;;
32838;SDS011;19182;41.820;12.808;2023-02-23T08:14:44;48.78;;;31.35;;
32838;SDS011;19182;41.820;12.808;2023-02-23T08:17:10;48.25;;;31.90;;
32838;SDS011;19182;41.820;12.808;2023-02-23T08:19:36;43.35;;;30.30;;
32838;SDS011;19182;41.820;12.808;2023-02-23T08:22:02;47.83;;;30.77;;
32838;SDS011;19182;41.820;12.808;2023-02-23T08:24:29;50.03;;;31.42;;
32838;SDS011;19182;41.820;12.808;2023-02-23T08:26:56;46.60;;;32.30;;
32838;SDS011;19182;41.820;12.808;2023-02-23T08:29:22;48.83;;;32.15;;
32838;SDS011;19182;41.820;12.808;2023-02-23T08:31:49;47.42;;;30.75;;
32838;SDS011;19182;41.820;12.808;2023-02-23T08:34:18;47.63;;;29.35;;
32838;SDS011;19182;41.820;12.808;2023-02-23T08:36:44;43.05;;;31.02;;
32838;SDS011;19182;41.820;12.808;2023-02-23T08:39:10;43.63;;;29.23;;
32838;SDS011;19182;41.820;12.808;2023-02-23T08:41:37;38.95;;;26.20;;
32838;SDS011;19182;41.820;12.808;2023-02-23T08:44:03;38.05;;;26.58;;
32838;SDS011;19182;41.820;12.808;2023-02-23T08:46:29;32.22;;;23.40;;
32838;SDS011;19182;41.820;12.808;2023-02-23T08:48:55;33.92;;;24.98;;
32838;SDS011;19182;41.820;12.808;2023-02-23T08:51:21;34.13;;;23.67;;
32838;SDS011;19182;41.820;12.808;2023-02-23T08:53:47;31.27;;;24.30;;
32838;SDS011;19182;41.820;12.808;2023-02-23T08:56:13;28.85;;;21.05;;
32838;SDS011;19182;41.820;12.808;2023-02-23T08:58:39;27.30;;;20.85;;
32838;SDS011;19182;41.820;12.808;2023-02-23T09:01:06;30.05;;;22.05;;
32838;SDS011;19182;41.820;12.808;2023-02-23T09:03:32;26.63;;;20.17;;
32838;SDS011;19182;41.820;12.808;2023-02-23T09:06:07;27.30;;;19.13;;
32838;SDS011;19182;41.820;12.808;2023-02-23T09:08:35;25.08;;;19.58;;
32838;SDS011;19182;41.820;12.808;2023-02-23T09:11:01;23.77;;;19.27;;
32838;SDS011;19182;41.820;12.808;2023-02-23T09:13:27;24.60;;;19.80;;
32838;SDS011;19182;41.820;12.808;2023-02-23T09:15:53;21.52;;;17.75;;
32838;SDS011;19182;41.820;12.808;2023-02-23T09:18:19;24.48;;;19.40;;
32838;SDS011;19182;41.820;12.808;2023-02-23T09:20:47;24.30;;;16.80;;
32838;SDS011;19182;41.820;12.808;2023-02-23T09:23:14;21.15;;;15.95;;
32838;SDS011;19182;41.820;12.808;2023-02-23T09:25:41;22.17;;;14.73;;
32838;SDS011;19182;41.820;12.808;2023-02-23T09:28:08;16.88;;;14.50;;
32838;SDS011;19182;41.820;12.808;2023-02-23T09:30:36;17.88;;;14.57;;
32838;SDS011;19182;41.820;12.808;2023-02-23T09:33:05;24.80;;;15.05;;
32838;SDS011;19182;41.820;12.808;2023-02-23T09:35:32;18.60;;;14.70;;
32838;SDS011;19182;41.820;12.808;2023-02-23T09:38:00;19.45;;;15.70;;
32838;SDS011;19182;41.820;12.808;2023-02-23T09:40:34;20.38;;;15.35;;
32838;SDS011;19182;41.820;12.808;2023-02-23T09:48:41;25.05;;;16.75;;
32838;SDS011;19182;41.820;12.808;2023-02-23T09:51:09;24.33;;;16.70;;
32838;SDS011;19182;41.820;12.808;2023-02-23T09:56:31;24.15;;;17.45;;
32838;SDS011;19182;41.820;12.808;2023-02-23T09:59:10;22.90;;;16.38;;
32838;SDS011;19182;41.820;12.808;2023-02-23T10:04:51;26.13;;;17.38;;
32838;SDS011;19182;41.820;12.808;2023-02-23T10:07:26;23.55;;;16.30;;
32838;SDS011;19182;41.820;12.808;2023-02-23T10:15:49;19.17;;;13.98;;
32838;SDS011;19182;41.820;12.808;2023-02-23T10:18:46;18.65;;;13.82;;
32838;SDS011;19182;41.820;12.808;2023-02-23T10:24:10;28.48;;;20.50;;
32838;SDS011;19182;41.820;12.808;2023-02-23T10:32:06;36.78;;;22.80;;
32838;SDS011;19182;41.820;12.808;2023-02-23T10:35:08;31.58;;;20.38;;
32838;SDS011;19182;41.820;12.808;2023-02-23T10:37:41;33.33;;;21.63;;
32838;SDS011;19182;41.820;12.808;2023-02-23T10:40:27;31.75;;;20.90;;
32838;SDS011;19182;41.820;12.808;2023-02-23T10:43:01;29.35;;;19.77;;
32838;SDS011;19182;41.820;12.808;2023-02-23T10:45:28;29.98;;;19.58;;
32838;SDS011;19182;41.820;12.808;2023-02-23T10:47:58;25.20;;;18.70;;
32838;SDS011;19182;41.820;12.808;2023-02-23T10:50:27;33.28;;;19.10;;
32838;SDS011;19182;41.820;12.808;2023-02-23T10:52:59;29.10;;;19.90;;
32838;SDS011;19182;41.820;12.808;2023-02-23T10:56:12;27.65;;;18.88;;
32838;SDS011;19182;41.820;12.808;2023-02-23T11:01:13;27.55;;;19.77;;
32838;SDS011;19182;41.820;12.808;2023-02-23T11:04:11;29.85;;;18.42;;
32838;SDS011;19182;41.820;12.808;2023-02-23T11:06:45;30.35;;;19.98;;
32838;SDS011;19182;41.820;12.808;2023-02-23T11:12:03;33.05;;;19.98;;
32838;SDS011;19182;41.820;12.808;2023-02-23T11:14:48;28.52;;;19.58;;
32838;SDS011;19182;41.820;12.808;2023-02-23T11:17:25;28.53;;;18.97;;
32838;SDS011;19182;41.820;12.808;2023-02-23T11:19:58;31.15;;;19.95;;
32838;SDS011;19182;41.820;12.808;2023-02-23T11:22:29;28.48;;;19.15;;
32838;SDS011;19182;41.820;12.808;2023-02-23T11:24:57;29.67;;;19.73;;
32838;SDS011;19182;41.820;12.808;2023-02-23T11:27:25;27.08;;;19.58;;
32838;SDS011;19182;41.820;12.808;2023-02-23T11:29:53;27.33;;;19.50;;
32838;SDS011;19182;41.820;12.808;2023-02-23T11:37:51;33.25;;;19.40;;
32838;SDS011;19182;41.820;12.808;2023-02-23T11:42:53;31.48;;;19.45;;
32838;SDS011;19182;41.820;12.808;2023-02-23T11:45:32;28.30;;;18.25;;
32838;SDS011;19182;41.820;12.808;2023-02-23T11:48:03;27.45;;;18.27;;
32838;SDS011;19182;41.820;12.808;2023-02-23T11:50:31;29.05;;;18.63;;
32838;SDS011;19182;41.820;12.808;2023-02-23T11:53:03;26.33;;;18.88;;
32838;SDS011;19182;41.820;12.808;2023-02-23T11:55:45;27.92;;;18.63;;
32838;SDS011;19182;41.820;12.808;2023-02-23T12:01:01;28.15;;;17.63;;
32838;SDS011;19182;41.820;12.808;2023-02-23T12:03:36;32.95;;;18.90;;
32838;SDS011;19182;41.820;12.808;2023-02-23T12:06:28;26.83;;;19.30;;
32838;SDS011;19182;41.820;12.808;2023-02-23T12:08:55;24.98;;;16.65;;
32838;SDS011;19182;41.820;12.808;2023-02-23T12:11:38;20.27;;;14.70;;
32838;SDS011;19182;41.820;12.808;2023-02-23T12:14:17;20.55;;;14.52;;
32838;SDS011;19182;41.820;12.808;2023-02-23T12:17:07;21.83;;;13.93;;
32838;SDS011;19182;41.820;12.808;2023-02-23T12:22:37;22.27;;;12.48;;
32838;SDS011;19182;41.820;12.808;2023-02-23T12:25:12;19.08;;;11.88;;
32838;SDS011;19182;41.820;12.808;2023-02-23T12:27:50;23.33;;;12.40;;
32838;SDS011;19182;41.820;12.808;2023-02-23T12:33:03;16.00;;;10.02;;
32838;SDS011;19182;41.820;12.808;2023-02-23T12:39:13;16.65;;;10.05;;
32838;SDS011;19182;41.820;12.808;2023-02-23T12:42:06;13.85;;;9.88;;
32838;SDS011;19182;41.820;12.808;2023-02-23T12:44:39;13.23;;;9.68;;
32838;SDS011;19182;41.820;12.808;2023-02-23T12:47:28;16.70;;;9.75;;
32838;SDS011;19182;41.820;12.808;2023-02-23T12:50:33;18.92;;;10.98;;
32838;SDS011;19182;41.820;12.808;2023-02-23T13:01:32;13.45;;;9.65;;
32838;SDS011;19182;41.820;12.808;2023-02-23T13:21:10;18.15;;;10.35;;
32838;SDS011;19182;41.820;12.808;2023-02-23T13:29:21;19.05;;;12.55;;
32838;SDS011;19182;41.820;12.808;2023-02-23T13:31:48;15.55;;;10.60;;
32838;SDS011;19182;41.820;12.808;2023-02-23T13:34:24;16.58;;;9.95;;
32838;SDS011;19182;41.820;12.808;2023-02-23T13:36:57;18.77;;;10.25;;
32838;SDS011;19182;41.820;12.808;2023-02-23T13:39:45;18.33;;;9.60;;
32838;SDS011;19182;41.820;12.808;2023-02-23T13:53:42;17.73;;;10.00;;
32838;SDS011;19182;41.820;12.808;2023-02-23T13:56:30;18.25;;;9.85;;
32838;SDS011;19182;41.820;12.808;2023-02-23T13:59:03;13.20;;;9.95;;
32838;SDS011;19182;41.820;12.808;2023-02-23T14:01:39;18.85;;;13.52;;
32838;SDS011;19182;41.820;12.808;2023-02-23T14:04:14;18.35;;;11.65;;
32838;SDS011;19182;41.820;12.808;2023-02-23T14:06:50;18.92;;;12.43;;
32838;SDS011;19182;41.820;12.808;2023-02-23T14:09:21;19.33;;;13.05;;
32838;SDS011;19182;41.820;12.808;2023-02-23T14:14:51;26.33;;;9.77;;
32838;SDS011;19182;41.820;12.808;2023-02-23T14:23:04;18.60;;;10.50;;
32838;SDS011;19182;41.820;12.808;2023-02-23T14:38:57;14.10;;;9.63;;
32838;SDS011;19182;41.820;12.808;2023-02-23T14:41:35;18.85;;;10.05;;
32838;SDS011;19182;41.820;12.808;2023-02-23T14:44:13;16.35;;;9.40;;
32838;SDS011;19182;41.820;12.808;2023-02-23T14:49:30;14.45;;;9.60;;
32838;SDS011;19182;41.820;12.808;2023-02-23T14:52:21;16.48;;;9.80;;
32838;SDS011;19182;41.820;12.808;2023-02-23T14:57:37;14.82;;;9.55;;
32838;SDS011;19182;41.820;12.808;2023-02-23T15:00:26;21.27;;;9.10;;
32838;SDS011;19182;41.820;12.808;2023-02-23T15:05:24;13.15;;;8.23;;
32838;SDS011;19182;41.820;12.808;2023-02-23T15:07:56;15.70;;;9.18;;
32838;SDS011;19182;41.820;12.808;2023-02-23T15:12:57;19.70;;;9.35;;
32838;SDS011;19182;41.820;12.808;2023-02-23T15:15:25;14.32;;;9.20;;
32838;SDS011;19182;41.820;12.808;2023-02-23T15:17:52;15.65;;;9.18;;
32838;SDS011;19182;41.820;12.808;2023-02-23T15:20:20;13.65;;;10.02;;
32838;SDS011;19182;41.820;12.808;2023-02-23T15:22:53;22.15;;;11.82;;
32838;SDS011;19182;41.820;12.808;2023-02-23T15:25:31;17.60;;;11.52;;
32838;SDS011;19182;41.820;12.808;2023-02-23T15:28:08;17.85;;;10.77;;
32838;SDS011;19182;41.820;12.808;2023-02-23T15:30:46;18.30;;;11.55;;
32838;SDS011;19182;41.820;12.808;2023-02-23T15:33:17;15.07;;;10.98;;
32838;SDS011;19182;41.820;12.808;2023-02-23T15:35:59;16.90;;;11.70;;
32838;SDS011;19182;41.820;12.808;2023-02-23T15:38:32;18.50;;;11.05;;
32838;SDS011;19182;41.820;12.808;2023-02-23T15:41:04;20.83;;;12.13;;
32838;SDS011;19182;41.820;12.808;2023-02-23T15:43:33;20.17;;;12.38;;
32838;SDS011;19182;41.820;12.808;2023-02-23T15:46:00;20.42;;;12.48;;
32838;SDS011;19182;41.820;12.808;2023-02-23T15:48:44;22.70;;;11.00;;
32838;SDS011;19182;41.820;12.808;2023-02-23T15:51:47;15.65;;;9.68;;
32838;SDS011;19182;41.820;12.808;2023-02-23T15:54:35;16.40;;;8.88;;
32838;SDS011;19182;41.820;12.808;2023-02-23T15:57:04;20.02;;;10.35;;
32838;SDS011;19182;41.820;12.808;2023-02-23T15:59:38;20.98;;;11.35;;
32838;SDS011;19182;41.820;12.808;2023-02-23T16:02:14;20.83;;;12.35;;
32838;SDS011;19182;41.820;12.808;2023-02-23T16:04:43;30.57;;;13.40;;
32838;SDS011;19182;41.820;12.808;2023-02-23T16:12:16;33.72;;;18.25;;
32838;SDS011;19182;41.820;12.808;2023-02-23T16:17:24;32.92;;;15.43;;
32838;SDS011;19182;41.820;12.808;2023-02-23T16:19:55;28.42;;;16.48;;
32838;SDS011;19182;41.820;12.808;2023-02-23T16:22:34;27.17;;;16.20;;
32838;SDS011;19182;41.820;12.808;2023-02-23T16:25:03;31.80;;;17.80;;
32838;SDS011;19182;41.820;12.808;2023-02-23T16:27:35;31.35;;;18.70;;
32838;SDS011;19182;41.820;12.808;2023-02-23T16:32:48;36.00;;;20.45;;
32838;SDS011;19182;41.820;12.808;2023-02-23T16:35:37;38.25;;;20.83;;
32838;SDS011;19182;41.820;12.808;2023-02-23T16:38:14;38.75;;;20.52;;
32838;SDS011;19182;41.820;12.808;2023-02-23T16:40:48;38.25;;;21.10;;
32838;SDS011;19182;41.820;12.808;2023-02-23T16:43:14;40.47;;;23.65;;
32838;SDS011;19182;41.820;12.808;2023-02-23T16:45:40;41.83;;;23.73;;
32838;SDS011;19182;41.820;12.808;2023-02-23T16:48:16;39.47;;;22.95;;
32838;SDS011;19182;41.820;12.808;2023-02-23T16:50:43;39.75;;;21.67;;
32838;SDS011;19182;41.820;12.808;2023-02-23T16:53:10;41.97;;;22.88;;
32838;SDS011;19182;41.820;12.808;2023-02-23T16:55:38;37.17;;;21.10;;
32838;SDS011;19182;41.820;12.808;2023-02-23T16:58:07;34.42;;;19.88;;
32838;SDS011;19182;41.820;12.808;2023-02-23T17:00:35;34.70;;;20.48;;
32838;SDS011;19182;41.820;12.808;2023-02-23T17:03:01;32.55;;;19.60;;
32838;SDS011;19182;41.820;12.808;2023-02-23T17:05:30;30.50;;;18.50;;
32838;SDS011;19182;41.820;12.808;2023-02-23T17:07:55;34.75;;;20.33;;
32838;SDS011;19182;41.820;12.808;2023-02-23T17:10:24;35.75;;;19.40;;
32838;SDS011;19182;41.820;12.808;2023-02-23T17:12:56;35.55;;;18.92;;
32838;SDS011;19182;41.820;12.808;2023-02-23T17:15:24;37.13;;;20.98;;
32838;SDS011;19182;41.820;12.808;2023-02-23T17:17:54;50.42;;;24.30;;
32838;SDS011;19182;41.820;12.808;2023-02-23T17:20:24;38.33;;;21.95;;
32838;SDS011;19182;41.820;12.808;2023-02-23T17:22:52;50.42;;;31.42;;
32838;SDS011;19182;41.820;12.808;2023-02-23T17:25:19;34.63;;;20.77;;
32838;SDS011;19182;41.820;12.808;2023-02-23T17:27:57;40.00;;;23.45;;
32838;SDS011;19182;41.820;12.808;2023-02-23T17:30:25;43.38;;;24.58;;
32838;SDS011;19182;41.820;12.808;2023-02-23T17:32:54;53.67;;;27.42;;
32838;SDS011;19182;41.820;12.808;2023-02-23T17:35:21;67.00;;;37.22;;
32838;SDS011;19182;41.820;12.808;2023-02-23T17:37:47;56.65;;;31.98;;
32838;SDS011;19182;41.820;12.808;2023-02-23T17:40:18;57.53;;;31.38;;
32838;SDS011;19182;41.820;12.808;2023-02-23T17:42:52;39.83;;;23.65;;
32838;SDS011;19182;41.820;12.808;2023-02-23T17:45:19;44.92;;;22.55;;
32838;SDS011;19182;41.820;12.808;2023-02-23T17:47:44;62.55;;;31.48;;
32838;SDS011;19182;41.820;12.808;2023-02-23T17:50:10;62.58;;;32.22;;
32838;SDS011;19182;41.820;12.808;2023-02-23T17:52:36;108.53;;;56.47;;
32838;SDS011;19182;41.820;12.808;2023-02-23T17:55:01;211.70;;;102.80;;
32838;SDS011;19182;41.820;12.808;2023-02-23T17:57:30;179.05;;;86.07;;
32838;SDS011;19182;41.820;12.808;2023-02-23T17:59:56;123.78;;;59.22;;
32838;SDS011;19182;41.820;12.808;2023-02-23T18:02:23;82.03;;;42.83;;
32838;SDS011;19182;41.820;12.808;2023-02-23T18:04:49;85.32;;;42.58;;